sensor_id;sensor_type;location;lat;lon;timestamp;pressure;altitude;pressure_sealevel;temperature;humidity
53522;BME280;39398;48.382;9.802;2023-02-13T00:02:17;95592.47;;;0.26;100.00
53522;BME280;39398;48.382;9.802;2023-02-13T00:07:19;95600.81;;;0.31;100.00
53522;BME280;39398;48.382;9.802;2023-02-13T00:12:20;95585.38;;;0.13;100.00
53522;BME280;39398;48.382;9.802;2023-02-13T00:17:23;95591.00;;;0.06;100.00
53522;BME280;39398;48.382;9.802;2023-02-13T00:22:25;95590.56;;;0.13;100.00
53522;BME280;39398;48.382;9.802;2023-02-13T00:27:27;95583.63;;;0.14;100.00
53522;BME280;39398;48.382;9.802;2023-02-13T00:32:29;95580.91;;;0.15;100.00
53522;BME280;39398;48.382;9.802;2023-02-13T00:37:32;95579.63;;;-0.08;100.00
53522;BME280;39398;48.382;9.802;2023-02-13T00:42:33;95587.06;;;0.29;100.00
53522;BME280;39398;48.382;9.802;2023-02-13T00:47:36;95592.09;;;0.32;100.00
53522;BME280;39398;48.382;9.802;2023-02-13T00:52:38;95586.81;;;0.33;100.00
53522;BME280;39398;48.382;9.802;2023-02-13T00:57:39;95587.91;;;-0.01;100.00
53522;BME280;39398;48.382;9.802;2023-02-13T01:02:42;95587.25;;;-0.05;100.00
53522;BME280;39398;48.382;9.802;2023-02-13T01:07:45;95590.13;;;0.21;100.00
53522;BME280;39398;48.382;9.802;2023-02-13T01:12:50;95584.91;;;0.07;100.00
53522;BME280;39398;48.382;9.802;2023-02-13T01:17:53;95580.56;;;-0.09;100.00
53522;BME280;39398;48.382;9.802;2023-02-13T01:22:56;95586.50;;;-0.07;100.00
53522;BME280;39398;48.382;9.802;2023-02-13T01:27:58;95584.31;;;0.02;100.00
53522;BME280;39398;48.382;9.802;2023-02-13T01:33:01;95582.59;;;0.46;100.00
53522;BME280;39398;48.382;9.802;2023-02-13T01:38:02;95582.47;;;0.34;100.00
53522;BME280;39398;48.382;9.802;2023-02-13T01:43:07;95569.44;;;1.21;100.00
53522;BME280;39398;48.382;9.802;2023-02-13T01:48:13;95556.81;;;1.01;100.00
53522;BME280;39398;48.382;9.802;2023-02-13T01:53:18;95547.34;;;1.00;100.00
53522;BME280;39398;48.382;9.802;2023-02-13T01:58:24;95559.88;;;0.79;100.00
53522;BME280;39398;48.382;9.802;2023-02-13T02:03:31;95554.69;;;0.93;100.00
53522;BME280;39398;48.382;9.802;2023-02-13T02:08:36;95551.59;;;1.29;100.00
53522;BME280;39398;48.382;9.802;2023-02-13T02:13:37;95549.66;;;1.19;100.00
53522;BME280;39398;48.382;9.802;2023-02-13T02:18:41;95559.78;;;0.52;100.00
53522;BME280;39398;48.382;9.802;2023-02-13T02:30:10;95561.38;;;1.26;100.00
53522;BME280;39398;48.382;9.802;2023-02-13T02:35:27;95545.09;;;1.08;100.00
53522;BME280;39398;48.382;9.802;2023-02-13T02:40:38;95538.75;;;1.41;100.00
53522;BME280;39398;48.382;9.802;2023-02-13T02:45:48;95531.81;;;1.27;100.00
53522;BME280;39398;48.382;9.802;2023-02-13T02:50:57;95529.38;;;1.38;100.00
53522;BME280;39398;48.382;9.802;2023-02-13T02:56:09;95536.56;;;1.61;100.00
53522;BME280;39398;48.382;9.802;2023-02-13T03:01:15;95529.94;;;1.70;100.00
53522;BME280;39398;48.382;9.802;2023-02-13T03:06:24;95537.44;;;1.33;100.00
53522;BME280;39398;48.382;9.802;2023-02-13T03:11:26;95535.34;;;1.26;100.00
53522;BME280;39398;48.382;9.802;2023-02-13T03:16:28;95544.47;;;1.60;100.00
53522;BME280;39398;48.382;9.802;2023-02-13T03:21:40;95547.84;;;1.75;100.00
53522;BME280;39398;48.382;9.802;2023-02-13T03:26:55;95555.53;;;1.63;100.00
53522;BME280;39398;48.382;9.802;2023-02-13T03:32:08;95564.06;;;1.66;100.00
53522;BME280;39398;48.382;9.802;2023-02-13T03:37:13;95564.59;;;1.44;100.00
53522;BME280;39398;48.382;9.802;2023-02-13T03:42:20;95572.22;;;0.75;100.00
53522;BME280;39398;48.382;9.802;2023-02-13T03:47:26;95579.03;;;0.78;100.00
53522;BME280;39398;48.382;9.802;2023-02-13T03:52:33;95581.41;;;0.52;100.00
53522;BME280;39398;48.382;9.802;2023-02-13T03:57:38;95593.06;;;0.15;100.00
53522;BME280;39398;48.382;9.802;2023-02-13T04:02:48;95593.97;;;0.30;100.00
53522;BME280;39398;48.382;9.802;2023-02-13T04:07:53;95605.78;;;0.50;100.00
53522;BME280;39398;48.382;9.802;2023-02-13T04:12:59;95593.22;;;0.28;100.00
53522;BME280;39398;48.382;9.802;2023-02-13T04:18:09;95596.59;;;0.14;100.00
53522;BME280;39398;48.382;9.802;2023-02-13T04:23:14;95601.13;;;0.10;100.00
53522;BME280;39398;48.382;9.802;2023-02-13T04:28:15;95601.34;;;0.21;100.00
53522;BME280;39398;48.382;9.802;2023-02-13T04:33:17;95591.25;;;0.61;100.00
53522;BME280;39398;48.382;9.802;2023-02-13T04:38:20;95593.91;;;0.45;100.00
53522;BME280;39398;48.382;9.802;2023-02-13T04:43:21;95588.47;;;0.79;100.00
53522;BME280;39398;48.382;9.802;2023-02-13T04:48:23;95587.75;;;0.77;100.00
53522;BME280;39398;48.382;9.802;2023-02-13T04:53:26;95581.63;;;0.92;100.00
53522;BME280;39398;48.382;9.802;2023-02-13T04:58:28;95574.19;;;0.86;100.00
53522;BME280;39398;48.382;9.802;2023-02-13T05:03:29;95582.44;;;0.92;100.00
53522;BME280;39398;48.382;9.802;2023-02-13T05:08:32;95575.59;;;1.06;100.00
53522;BME280;39398;48.382;9.802;2023-02-13T05:13:37;95581.63;;;0.92;100.00
53522;BME280;39398;48.382;9.802;2023-02-13T05:18:38;95567.69;;;0.93;100.00
53522;BME280;39398;48.382;9.802;2023-02-13T05:23:41;95561.63;;;0.92;100.00
53522;BME280;39398;48.382;9.802;2023-02-13T05:28:43;95573.00;;;1.06;100.00
53522;BME280;39398;48.382;9.802;2023-02-13T05:33:44;95578.19;;;0.77;100.00
53522;BME280;39398;48.382;9.802;2023-02-13T05:38:47;95579.47;;;0.84;100.00
53522;BME280;39398;48.382;9.802;2023-02-13T05:43:49;95596.69;;;0.57;100.00
53522;BME280;39398;48.382;9.802;2023-02-13T05:48:50;95596.16;;;0.52;100.00
53522;BME280;39398;48.382;9.802;2023-02-13T05:53:54;95586.53;;;0.68;100.00
53522;BME280;39398;48.382;9.802;2023-02-13T05:58:56;95596.28;;;0.79;100.00
53522;BME280;39398;48.382;9.802;2023-02-13T06:03:57;95593.13;;;0.88;100.00
53522;BME280;39398;48.382;9.802;2023-02-13T06:09:03;95594.31;;;0.68;100.00
53522;BME280;39398;48.382;9.802;2023-02-13T06:14:05;95593.25;;;0.42;100.00
53522;BME280;39398;48.382;9.802;2023-02-13T06:19:07;95594.56;;;0.49;100.00
53522;BME280;39398;48.382;9.802;2023-02-13T06:24:10;95596.81;;;0.69;100.00
53522;BME280;39398;48.382;9.802;2023-02-13T06:29:11;95589.56;;;0.60;100.00
53522;BME280;39398;48.382;9.802;2023-02-13T06:34:13;95592.28;;;0.29;100.00
53522;BME280;39398;48.382;9.802;2023-02-13T06:39:16;95588.19;;;0.55;100.00
53522;BME280;39398;48.382;9.802;2023-02-13T06:44:17;95597.59;;;0.41;100.00
53522;BME280;39398;48.382;9.802;2023-02-13T06:49:19;95592.06;;;0.17;100.00
53522;BME280;39398;48.382;9.802;2023-02-13T06:54:22;95597.44;;;0.14;100.00
53522;BME280;39398;48.382;9.802;2023-02-13T06:59:41;95598.50;;;0.26;100.00
53522;BME280;39398;48.382;9.802;2023-02-13T07:04:43;95599.41;;;0.55;100.00
53522;BME280;39398;48.382;9.802;2023-02-13T07:09:46;95602.50;;;0.76;100.00
53522;BME280;39398;48.382;9.802;2023-02-13T07:14:47;95603.66;;;0.56;100.00
53522;BME280;39398;48.382;9.802;2023-02-13T07:19:49;95598.94;;;0.49;100.00
53522;BME280;39398;48.382;9.802;2023-02-13T07:24:52;95615.44;;;0.47;100.00
53522;BME280;39398;48.382;9.802;2023-02-13T07:29:54;95618.03;;;0.47;100.00
53522;BME280;39398;48.382;9.802;2023-02-13T07:34:56;95612.59;;;0.52;100.00
53522;BME280;39398;48.382;9.802;2023-02-13T07:40:05;95618.78;;;0.94;100.00
53522;BME280;39398;48.382;9.802;2023-02-13T07:45:08;95625.16;;;0.74;100.00
53522;BME280;39398;48.382;9.802;2023-02-13T07:50:10;95636.56;;;0.72;100.00
53522;BME280;39398;48.382;9.802;2023-02-13T07:55:13;95636.75;;;0.68;100.00
53522;BME280;39398;48.382;9.802;2023-02-13T08:00:16;95644.53;;;0.68;100.00
53522;BME280;39398;48.382;9.802;2023-02-13T08:05:18;95640.03;;;0.86;100.00
53522;BME280;39398;48.382;9.802;2023-02-13T08:10:27;95636.22;;;0.47;100.00
53522;BME280;39398;48.382;9.802;2023-02-13T08:15:29;95641.69;;;0.43;100.00
53522;BME280;39398;48.382;9.802;2023-02-13T08:20:31;95646.66;;;0.32;100.00
53522;BME280;39398;48.382;9.802;2023-02-13T08:25:34;95648.00;;;0.39;100.00
53522;BME280;39398;48.382;9.802;2023-02-13T08:30:37;95646.19;;;0.55;100.00
53522;BME280;39398;48.382;9.802;2023-02-13T08:35:39;95656.72;;;0.68;100.00
53522;BME280;39398;48.382;9.802;2023-02-13T08:40:42;95642.09;;;0.51;100.00
53522;BME280;39398;48.382;9.802;2023-02-13T08:45:43;95644.91;;;0.32;100.00
53522;BME280;39398;48.382;9.802;2023-02-13T08:50:45;95648.78;;;0.55;100.00
53522;BME280;39398;48.382;9.802;2023-02-13T08:55:52;95644.94;;;0.77;100.00
53522;BME280;39398;48.382;9.802;2023-02-13T09:00:54;95644.81;;;0.64;100.00
53522;BME280;39398;48.382;9.802;2023-02-13T09:05:57;95648.75;;;0.85;100.00
53522;BME280;39398;48.382;9.802;2023-02-13T09:11:03;95650.50;;;0.85;100.00
53522;BME280;39398;48.382;9.802;2023-02-13T09:16:06;95645.56;;;0.36;100.00
53522;BME280;39398;48.382;9.802;2023-02-13T09:21:11;95653.81;;;0.73;100.00
53522;BME280;39398;48.382;9.802;2023-02-13T09:26:14;95651.50;;;0.68;100.00
53522;BME280;39398;48.382;9.802;2023-02-13T09:31:18;95646.91;;;0.57;100.00
53522;BME280;39398;48.382;9.802;2023-02-13T09:36:22;95647.91;;;0.85;100.00
53522;BME280;39398;48.382;9.802;2023-02-13T09:41:27;95636.94;;;0.80;100.00
53522;BME280;39398;48.382;9.802;2023-02-13T09:46:32;95642.13;;;0.65;100.00
53522;BME280;39398;48.382;9.802;2023-02-13T09:51:34;95643.34;;;0.74;100.00
53522;BME280;39398;48.382;9.802;2023-02-13T09:56:49;95647.72;;;0.74;100.00
53522;BME280;39398;48.382;9.802;2023-02-13T10:02:00;95648.59;;;1.17;100.00
53522;BME280;39398;48.382;9.802;2023-02-13T10:07:12;95656.34;;;0.74;100.00
53522;BME280;39398;48.382;9.802;2023-02-13T10:12:33;95654.53;;;1.05;100.00
53522;BME280;39398;48.382;9.802;2023-02-13T10:17:41;95660.13;;;1.13;100.00
53522;BME280;39398;48.382;9.802;2023-02-13T10:22:47;95660.84;;;1.01;100.00
53522;BME280;39398;48.382;9.802;2023-02-13T10:27:55;95657.19;;;0.89;100.00
53522;BME280;39398;48.382;9.802;2023-02-13T10:33:02;95656.66;;;0.98;100.00
53522;BME280;39398;48.382;9.802;2023-02-13T10:38:14;95660.50;;;1.35;100.00
53522;BME280;39398;48.382;9.802;2023-02-13T10:43:19;95648.88;;;1.27;100.00
53522;BME280;39398;48.382;9.802;2023-02-13T10:48:32;95645.84;;;0.76;100.00
53522;BME280;39398;48.382;9.802;2023-02-13T10:53:58;95642.13;;;0.80;100.00
53522;BME280;39398;48.382;9.802;2023-02-13T10:59:22;95635.78;;;1.14;100.00
53522;BME280;39398;48.382;9.802;2023-02-13T11:04:28;95629.66;;;0.86;100.00
53522;BME280;39398;48.382;9.802;2023-02-13T11:09:36;95615.53;;;1.48;100.00
53522;BME280;39398;48.382;9.802;2023-02-13T11:14:52;95622.03;;;0.98;100.00
53522;BME280;39398;48.382;9.802;2023-02-13T11:19:56;95614.88;;;1.44;100.00
53522;BME280;39398;48.382;9.802;2023-02-13T11:25:01;95611.97;;;1.49;100.00
53522;BME280;39398;48.382;9.802;2023-02-13T11:30:29;95617.00;;;1.23;100.00
53522;BME280;39398;48.382;9.802;2023-02-13T11:35:32;95621.94;;;1.56;100.00
53522;BME280;39398;48.382;9.802;2023-02-13T11:40:35;95613.41;;;1.81;100.00
53522;BME280;39398;48.382;9.802;2023-02-13T11:45:39;95621.44;;;1.64;100.00
53522;BME280;39398;48.382;9.802;2023-02-13T11:50:41;95630.56;;;1.98;100.00
53522;BME280;39398;48.382;9.802;2023-02-13T11:55:44;95622.53;;;1.74;100.00
53522;BME280;39398;48.382;9.802;2023-02-13T12:00:47;95621.31;;;1.80;100.00
53522;BME280;39398;48.382;9.802;2023-02-13T12:05:59;95610.47;;;2.00;100.00
53522;BME280;39398;48.382;9.802;2023-02-13T12:11:04;95605.56;;;1.96;100.00
53522;BME280;39398;48.382;9.802;2023-02-13T12:16:27;95610.25;;;2.30;100.00
53522;BME280;39398;48.382;9.802;2023-02-13T12:21:46;95603.25;;;2.18;100.00
53522;BME280;39398;48.382;9.802;2023-02-13T12:26:52;95600.47;;;2.34;100.00
53522;BME280;39398;48.382;9.802;2023-02-13T12:32:11;95591.50;;;2.38;100.00
53522;BME280;39398;48.382;9.802;2023-02-13T12:37:26;95591.09;;;2.44;100.00
53522;BME280;39398;48.382;9.802;2023-02-13T12:42:42;95584.44;;;2.13;100.00
53522;BME280;39398;48.382;9.802;2023-02-13T12:48:00;95578.91;;;2.05;100.00
53522;BME280;39398;48.382;9.802;2023-02-13T12:53:22;95581.94;;;1.84;100.00
53522;BME280;39398;48.382;9.802;2023-02-13T12:58:40;95579.56;;;2.08;100.00
53522;BME280;39398;48.382;9.802;2023-02-13T13:03:56;95580.34;;;1.96;100.00
53522;BME280;39398;48.382;9.802;2023-02-13T13:09:18;95575.69;;;2.01;100.00
53522;BME280;39398;48.382;9.802;2023-02-13T13:14:31;95583.75;;;2.11;100.00
53522;BME280;39398;48.382;9.802;2023-02-13T13:19:43;95581.31;;;2.08;100.00
53522;BME280;39398;48.382;9.802;2023-02-13T13:24:54;95571.78;;;1.67;100.00
53522;BME280;39398;48.382;9.802;2023-02-13T13:29:58;95573.56;;;1.67;100.00
53522;BME280;39398;48.382;9.802;2023-02-13T13:35:05;95575.69;;;2.01;100.00
53522;BME280;39398;48.382;9.802;2023-02-13T13:40:25;95574.84;;;1.74;100.00
53522;BME280;39398;48.382;9.802;2023-02-13T13:45:37;95566.66;;;2.20;100.00
53522;BME280;39398;48.382;9.802;2023-02-13T13:50:44;95563.59;;;2.40;100.00
53522;BME280;39398;48.382;9.802;2023-02-13T13:56:06;95564.13;;;2.71;100.00
53522;BME280;39398;48.382;9.802;2023-02-13T14:01:25;95566.63;;;2.60;100.00
53522;BME280;39398;48.382;9.802;2023-02-13T14:12:35;95576.50;;;2.42;100.00
53522;BME280;39398;48.382;9.802;2023-02-13T14:17:52;95582.69;;;2.14;100.00
53522;BME280;39398;48.382;9.802;2023-02-13T14:23:05;95586.31;;;1.98;100.00
53522;BME280;39398;48.382;9.802;2023-02-13T14:28:19;95588.72;;;2.01;100.00
53522;BME280;39398;48.382;9.802;2023-02-13T14:33:24;95586.41;;;1.55;100.00
53522;BME280;39398;48.382;9.802;2023-02-13T14:38:29;95579.94;;;2.02;100.00
53522;BME280;39398;48.382;9.802;2023-02-13T14:43:41;95581.75;;;1.60;100.00
53522;BME280;39398;48.382;9.802;2023-02-13T14:48:51;95578.19;;;2.03;100.00
53522;BME280;39398;48.382;9.802;2023-02-13T14:53:58;95589.25;;;1.65;100.00
53522;BME280;39398;48.382;9.802;2023-02-13T14:59:10;95584.16;;;1.91;100.00
53522;BME280;39398;48.382;9.802;2023-02-13T15:04:22;95577.75;;;1.69;100.00
53522;BME280;39398;48.382;9.802;2023-02-13T15:09:31;95577.13;;;1.78;100.00
53522;BME280;39398;48.382;9.802;2023-02-13T15:14:36;95568.16;;;1.70;100.00
53522;BME280;39398;48.382;9.802;2023-02-13T15:19:42;95571.03;;;1.65;100.00
53522;BME280;39398;48.382;9.802;2023-02-13T15:24:47;95560.53;;;1.25;100.00
53522;BME280;39398;48.382;9.802;2023-02-13T15:29:55;95563.75;;;1.43;100.00
53522;BME280;39398;48.382;9.802;2023-02-13T15:34:58;95564.50;;;1.72;100.00
53522;BME280;39398;48.382;9.802;2023-02-13T15:40:24;95561.72;;;2.02;100.00
53522;BME280;39398;48.382;9.802;2023-02-13T15:45:27;95566.28;;;1.99;100.00
53522;BME280;39398;48.382;9.802;2023-02-13T15:50:32;95560.47;;;1.81;100.00
53522;BME280;39398;48.382;9.802;2023-02-13T15:55:35;95561.84;;;1.59;100.00
53522;BME280;39398;48.382;9.802;2023-02-13T16:00:40;95568.53;;;1.22;100.00
53522;BME280;39398;48.382;9.802;2023-02-13T16:05:44;95569.75;;;1.58;100.00
53522;BME280;39398;48.382;9.802;2023-02-13T16:10:48;95560.34;;;1.70;100.00
53522;BME280;39398;48.382;9.802;2023-02-13T16:15:50;95568.22;;;1.82;100.00
53522;BME280;39398;48.382;9.802;2023-02-13T16:20:52;95557.09;;;1.25;100.00
53522;BME280;39398;48.382;9.802;2023-02-13T16:26:00;95555.34;;;1.52;100.00
53522;BME280;39398;48.382;9.802;2023-02-13T16:31:04;95553.44;;;1.27;100.00
53522;BME280;39398;48.382;9.802;2023-02-13T16:36:17;95551.09;;;1.37;100.00
53522;BME280;39398;48.382;9.802;2023-02-13T16:41:31;95562.84;;;1.71;100.00
53522;BME280;39398;48.382;9.802;2023-02-13T16:46:35;95556.19;;;1.53;100.00
53522;BME280;39398;48.382;9.802;2023-02-13T16:51:48;95556.41;;;1.77;100.00
53522;BME280;39398;48.382;9.802;2023-02-13T16:56:53;95571.47;;;1.72;100.00
53522;BME280;39398;48.382;9.802;2023-02-13T17:02:11;95569.56;;;1.61;100.00
53522;BME280;39398;48.382;9.802;2023-02-13T17:07:18;95578.44;;;1.44;100.00
53522;BME280;39398;48.382;9.802;2023-02-13T17:12:20;95582.53;;;1.34;100.00
53522;BME280;39398;48.382;9.802;2023-02-13T17:17:22;95580.50;;;1.10;100.00
53522;BME280;39398;48.382;9.802;2023-02-13T17:22:30;95571.91;;;1.37;100.00
53522;BME280;39398;48.382;9.802;2023-02-13T17:27:33;95577.22;;;1.21;100.00
53522;BME280;39398;48.382;9.802;2023-02-13T17:32:35;95576.28;;;1.36;100.00
53522;BME280;39398;48.382;9.802;2023-02-13T17:37:39;95576.50;;;1.75;100.00
53522;BME280;39398;48.382;9.802;2023-02-13T17:42:42;95577.72;;;1.13;100.00
53522;BME280;39398;48.382;9.802;2023-02-13T17:47:45;95575.66;;;1.47;100.00
53522;BME280;39398;48.382;9.802;2023-02-13T17:52:48;95577.72;;;1.28;100.00
53522;BME280;39398;48.382;9.802;2023-02-13T17:57:51;95575.97;;;1.55;100.00
53522;BME280;39398;48.382;9.802;2023-02-13T18:02:54;95574.72;;;1.75;100.00
53522;BME280;39398;48.382;9.802;2023-02-13T18:07:57;95582.19;;;1.67;100.00
53522;BME280;39398;48.382;9.802;2023-02-13T18:12:59;95589.03;;;0.98;100.00
53522;BME280;39398;48.382;9.802;2023-02-13T18:18:01;95582.59;;;1.61;100.00
53522;BME280;39398;48.382;9.802;2023-02-13T18:23:04;95578.78;;;1.52;100.00
53522;BME280;39398;48.382;9.802;2023-02-13T18:28:05;95573.19;;;1.03;100.00
53522;BME280;39398;48.382;9.802;2023-02-13T18:33:07;95575.75;;;1.17;100.00
53522;BME280;39398;48.382;9.802;2023-02-13T18:38:10;95566.59;;;1.53;100.00
53522;BME280;39398;48.382;9.802;2023-02-13T18:43:11;95574.47;;;1.66;100.00
53522;BME280;39398;48.382;9.802;2023-02-13T18:48:13;95574.16;;;1.43;100.00
53522;BME280;39398;48.382;9.802;2023-02-13T18:53:16;95586.50;;;1.39;100.00
53522;BME280;39398;48.382;9.802;2023-02-13T18:58:17;95587.72;;;1.34;100.00
53522;BME280;39398;48.382;9.802;2023-02-13T19:03:19;95596.09;;;1.39;100.00
53522;BME280;39398;48.382;9.802;2023-02-13T19:08:22;95592.47;;;1.83;100.00
53522;BME280;39398;48.382;9.802;2023-02-13T19:13:23;95592.81;;;1.50;100.00
53522;BME280;39398;48.382;9.802;2023-02-13T19:18:25;95580.53;;;1.66;100.00
53522;BME280;39398;48.382;9.802;2023-02-13T19:23:28;95584.25;;;1.62;100.00
53522;BME280;39398;48.382;9.802;2023-02-13T19:28:30;95575.78;;;1.58;100.00
53522;BME280;39398;48.382;9.802;2023-02-13T19:33:31;95574.16;;;1.43;100.00
53522;BME280;39398;48.382;9.802;2023-02-13T19:38:35;95572.00;;;1.50;100.00
53522;BME280;39398;48.382;9.802;2023-02-13T19:43:37;95570.91;;;1.54;100.00
53522;BME280;39398;48.382;9.802;2023-02-13T19:48:38;95567.78;;;1.76;100.00
53522;BME280;39398;48.382;9.802;2023-02-13T19:53:42;95569.63;;;1.74;100.00
53522;BME280;39398;48.382;9.802;2023-02-13T19:58:43;95573.25;;;1.71;100.00
53522;BME280;39398;48.382;9.802;2023-02-13T20:03:45;95562.56;;;1.76;100.00
53522;BME280;39398;48.382;9.802;2023-02-13T20:08:49;95567.41;;;1.26;100.00
53522;BME280;39398;48.382;9.802;2023-02-13T20:13:52;95561.72;;;1.05;100.00
53522;BME280;39398;48.382;9.802;2023-02-13T20:18:54;95570.53;;;1.46;100.00
53522;BME280;39398;48.382;9.802;2023-02-13T20:23:57;95571.19;;;1.21;100.00
53522;BME280;39398;48.382;9.802;2023-02-13T20:28:59;95577.06;;;1.24;100.00
53522;BME280;39398;48.382;9.802;2023-02-13T20:34:00;95572.59;;;1.26;100.00
53522;BME280;39398;48.382;9.802;2023-02-13T20:39:05;95568.72;;;1.19;100.00
53522;BME280;39398;48.382;9.802;2023-02-13T20:44:10;95571.56;;;1.29;100.00
53522;BME280;39398;48.382;9.802;2023-02-13T20:49:12;95576.03;;;1.41;100.00
53522;BME280;39398;48.382;9.802;2023-02-13T20:54:14;95564.09;;;1.51;100.00
53522;BME280;39398;48.382;9.802;2023-02-13T20:59:16;95557.50;;;1.46;100.00
53522;BME280;39398;48.382;9.802;2023-02-13T21:04:17;95555.53;;;1.49;100.00
53522;BME280;39398;48.382;9.802;2023-02-13T21:09:21;95554.66;;;1.36;100.00
53522;BME280;39398;48.382;9.802;2023-02-13T21:14:22;95545.56;;;1.29;100.00
53522;BME280;39398;48.382;9.802;2023-02-13T21:19:24;95545.59;;;1.56;100.00
53522;BME280;39398;48.382;9.802;2023-02-13T21:24:27;95536.66;;;1.60;100.00
53522;BME280;39398;48.382;9.802;2023-02-13T21:29:28;95544.09;;;1.25;100.00
53522;BME280;39398;48.382;9.802;2023-02-13T21:34:30;95538.84;;;1.39;100.00
53522;BME280;39398;48.382;9.802;2023-02-13T21:39:33;95537.81;;;1.69;100.00
53522;BME280;39398;48.382;9.802;2023-02-13T21:44:34;95528.06;;;1.45;100.00
53522;BME280;39398;48.382;9.802;2023-02-13T21:49:36;95537.63;;;1.72;100.00
53522;BME280;39398;48.382;9.802;2023-02-13T21:54:39;95541.97;;;1.58;100.00
53522;BME280;39398;48.382;9.802;2023-02-13T21:59:40;95534.22;;;1.30;100.00
53522;BME280;39398;48.382;9.802;2023-02-13T22:04:42;95529.88;;;1.57;100.00
53522;BME280;39398;48.382;9.802;2023-02-13T22:09:45;95530.91;;;1.13;100.00
53522;BME280;39398;48.382;9.802;2023-02-13T22:14:46;95532.09;;;1.08;100.00
53522;BME280;39398;48.382;9.802;2023-02-13T22:19:48;95531.28;;;1.07;100.00
53522;BME280;39398;48.382;9.802;2023-02-13T22:24:51;95537.13;;;0.82;100.00
53522;BME280;39398;48.382;9.802;2023-02-13T22:29:52;95544.94;;;0.82;100.00
53522;BME280;39398;48.382;9.802;2023-02-13T22:34:54;95538.03;;;1.24;100.00
53522;BME280;39398;48.382;9.802;2023-02-13T22:39:57;95534.81;;;1.06;100.00
53522;BME280;39398;48.382;9.802;2023-02-13T22:44:58;95528.38;;;1.26;100.00
53522;BME280;39398;48.382;9.802;2023-02-13T22:50:00;95529.56;;;1.35;100.00
53522;BME280;39398;48.382;9.802;2023-02-13T22:55:03;95532.81;;;1.38;100.00
53522;BME280;39398;48.382;9.802;2023-02-13T23:00:08;95536.66;;;1.19;100.00
53522;BME280;39398;48.382;9.802;2023-02-13T23:05:10;95530.16;;;0.97;100.00
53522;BME280;39398;48.382;9.802;2023-02-13T23:10:12;95525.00;;;1.24;100.00
53522;BME280;39398;48.382;9.802;2023-02-13T23:15:14;95522.59;;;1.35;100.00
53522;BME280;39398;48.382;9.802;2023-02-13T23:20:16;95529.19;;;1.41;100.00
53522;BME280;39398;48.382;9.802;2023-02-13T23:25:20;95518.53;;;1.17;100.00
53522;BME280;39398;48.382;9.802;2023-02-13T23:30:22;95504.63;;;1.45;100.00
53522;BME280;39398;48.382;9.802;2023-02-13T23:35:25;95510.00;;;1.01;100.00
53522;BME280;39398;48.382;9.802;2023-02-13T23:40:28;95512.19;;;1.35;100.00
53522;BME280;39398;48.382;9.802;2023-02-13T23:45:30;95496.00;;;1.45;100.00
53522;BME280;39398;48.382;9.802;2023-02-13T23:50:32;95490.75;;;1.17;100.00
53522;BME280;39398;48.382;9.802;2023-02-13T23:55:34;95482.59;;;1.09;100.00
